TRA462 LGAV-LMML
Flight info
| Callsign | TRA462 |
|---|---|
| Flight time | 1h 26m |
| Altitude | 31000 |
| Route | DDM UY115 KAM/N0449F320 DCT ROTAS/N0453F340 DCT AGARI/N0447F300 M978 GZO |
| Aircraft | B738/M-SDE2E3FGHIRWXY/LB1 |
Departure
| Time | 2026-05-06 18:23 |
|---|---|
| Airport | Athens Eleftherios Venizelos International Airport (LGAV) |
Arrival
| Time | 2026-05-06 19:49 |
|---|---|
| Airport | Malta International Airport (LMML) |
| Time | Latitude | Longitude | Altitude | Speed | Heading |
|---|---|---|---|---|---|
| 2026-05-06 17:45 | 37.93796 | 23.95016 | 301 ft | 0 kts | 307° |
| 2026-05-06 18:13 | 37.93783 | 23.95038 | 302 ft | 4 kts | 307° |
| 2026-05-06 18:13 | 37.93770 | 23.95059 | 300 ft | 4 kts | 310° |
| 2026-05-06 18:14 | 37.93751 | 23.95080 | 302 ft | 4 kts | 344° |
| 2026-05-06 18:14 | 37.93726 | 23.95080 | 302 ft | 4 kts | 31° |
| 2026-05-06 18:14 | 37.93722 | 23.95076 | 302 ft | 1 kts | 37° |
| 2026-05-06 18:16 | 37.93735 | 23.95089 | 300 ft | 7 kts | 37° |
| 2026-05-06 18:17 | 37.93799 | 23.95150 | 300 ft | 14 kts | 37° |
| 2026-05-06 18:17 | 37.93860 | 23.95232 | 299 ft | 13 kts | 64° |
| 2026-05-06 18:17 | 37.93886 | 23.95335 | 298 ft | 11 kts | 90° |
| 2026-05-06 18:17 | 37.93854 | 23.95418 | 298 ft | 11 kts | 110° |
| 2026-05-06 18:18 | 37.93883 | 23.95502 | 295 ft | 11 kts | 40° |
| 2026-05-06 18:18 | 37.93946 | 23.95562 | 296 ft | 12 kts | 36° |
| 2026-05-06 18:18 | 37.94028 | 23.95640 | 297 ft | 17 kts | 37° |
| 2026-05-06 18:18 | 37.94137 | 23.95743 | 299 ft | 22 kts | 37° |
| 2026-05-06 18:19 | 37.94270 | 23.95868 | 296 ft | 26 kts | 37° |
| 2026-05-06 18:19 | 37.94418 | 23.96009 | 298 ft | 28 kts | 37° |
| 2026-05-06 18:19 | 37.94567 | 23.96152 | 300 ft | 26 kts | 37° |
| 2026-05-06 18:19 | 37.94707 | 23.96283 | 299 ft | 24 kts | 36° |
| 2026-05-06 18:20 | 37.94836 | 23.96408 | 299 ft | 23 kts | 38° |
| 2026-05-06 18:20 | 37.94962 | 23.96525 | 301 ft | 22 kts | 37° |
| 2026-05-06 18:20 | 37.95083 | 23.96642 | 301 ft | 22 kts | 37° |
| 2026-05-06 18:20 | 37.95201 | 23.96754 | 302 ft | 21 kts | 37° |
| 2026-05-06 18:21 | 37.95291 | 23.96846 | 304 ft | 13 kts | 58° |
| 2026-05-06 18:21 | 37.95268 | 23.96950 | 307 ft | 13 kts | 124° |
| 2026-05-06 18:21 | 37.95225 | 23.97025 | 309 ft | 6 kts | 139° |
| 2026-05-06 18:21 | 37.95188 | 23.97019 | 309 ft | 6 kts | 216° |
| 2026-05-06 18:22 | 37.95135 | 23.96969 | 308 ft | 25 kts | 217° |
| 2026-05-06 18:22 | 37.94791 | 23.96642 | 300 ft | 97 kts | 217° |
| 2026-05-06 18:22 | 37.94077 | 23.95956 | 295 ft | 157 kts | 219° |
| 2026-05-06 18:22 | 37.93150 | 23.95074 | 805 ft | 168 kts | 218° |
| 2026-05-06 18:23 | 37.92232 | 23.94195 | 1672 ft | 163 kts | 217° |
| 2026-05-06 18:23 | 37.91199 | 23.93585 | 2258 ft | 174 kts | 189° |
| 2026-05-06 18:23 | 37.89967 | 23.93060 | 2509 ft | 202 kts | 211° |
| 2026-05-06 18:23 | 37.88694 | 23.92087 | 2714 ft | 226 kts | 210° |
| 2026-05-06 18:24 | 37.87274 | 23.91078 | 3102 ft | 240 kts | 209° |
| 2026-05-06 18:24 | 37.85783 | 23.90042 | 3767 ft | 247 kts | 209° |
| 2026-05-06 18:24 | 37.84283 | 23.89011 | 4550 ft | 249 kts | 209° |
| 2026-05-06 18:24 | 37.82751 | 23.87965 | 5325 ft | 252 kts | 209° |
| 2026-05-06 18:25 | 37.81195 | 23.86906 | 6050 ft | 256 kts | 209° |
| 2026-05-06 18:25 | 37.79609 | 23.85832 | 6765 ft | 260 kts | 209° |
| 2026-05-06 18:25 | 37.78005 | 23.84747 | 7485 ft | 263 kts | 209° |
| 2026-05-06 18:25 | 37.76384 | 23.83652 | 8215 ft | 265 kts | 209° |
| 2026-05-06 18:26 | 37.74746 | 23.82547 | 8946 ft | 268 kts | 209° |
| 2026-05-06 18:26 | 37.73084 | 23.81437 | 9646 ft | 272 kts | 208° |
| 2026-05-06 18:26 | 37.71401 | 23.80317 | 10325 ft | 275 kts | 209° |
| 2026-05-06 18:26 | 37.69695 | 23.79181 | 10982 ft | 278 kts | 209° |
| 2026-05-06 18:27 | 37.67971 | 23.78033 | 11634 ft | 282 kts | 209° |
| 2026-05-06 18:27 | 37.66220 | 23.76868 | 12317 ft | 285 kts | 209° |
| 2026-05-06 18:27 | 37.64445 | 23.75687 | 13007 ft | 289 kts | 210° |
| 2026-05-06 18:27 | 37.62679 | 23.74511 | 13695 ft | 293 kts | 210° |
| 2026-05-06 18:28 | 37.60870 | 23.73309 | 14369 ft | 295 kts | 210° |
| 2026-05-06 18:28 | 37.59042 | 23.72095 | 15021 ft | 299 kts | 210° |
| 2026-05-06 18:28 | 37.57201 | 23.70834 | 15620 ft | 305 kts | 217° |
| 2026-05-06 18:28 | 37.55722 | 23.68829 | 15767 ft | 318 kts | 247° |
| 2026-05-06 18:29 | 37.55041 | 23.66152 | 15961 ft | 334 kts | 259° |
| 2026-05-06 18:29 | 37.54549 | 23.63203 | 16111 ft | 354 kts | 261° |
| 2026-05-06 18:29 | 37.54073 | 23.60071 | 16292 ft | 372 kts | 261° |
| 2026-05-06 18:29 | 37.53579 | 23.56828 | 16738 ft | 380 kts | 261° |
| 2026-05-06 18:30 | 37.53066 | 23.53549 | 17383 ft | 382 kts | 261° |
| 2026-05-06 18:30 | 37.52538 | 23.50258 | 18057 ft | 384 kts | 261° |
| 2026-05-06 18:30 | 37.51998 | 23.46945 | 18644 ft | 387 kts | 261° |
| 2026-05-06 18:30 | 37.51448 | 23.43608 | 19157 ft | 391 kts | 261° |
| 2026-05-06 18:31 | 37.50890 | 23.40234 | 19691 ft | 394 kts | 261° |
| 2026-05-06 18:31 | 37.50326 | 23.36839 | 20236 ft | 397 kts | 261° |
| 2026-05-06 18:31 | 37.49758 | 23.33428 | 20770 ft | 399 kts | 261° |
| 2026-05-06 18:31 | 37.49187 | 23.29998 | 21295 ft | 402 kts | 261° |
| 2026-05-06 18:32 | 37.48610 | 23.26538 | 21813 ft | 405 kts | 261° |
| 2026-05-06 18:32 | 37.48028 | 23.23058 | 22319 ft | 407 kts | 261° |
| 2026-05-06 18:32 | 37.47505 | 23.19544 | 22834 ft | 409 kts | 264° |
| 2026-05-06 18:32 | 37.47168 | 23.15978 | 23303 ft | 411 kts | 266° |
| 2026-05-06 18:33 | 37.46910 | 23.12383 | 23745 ft | 414 kts | 267° |
| 2026-05-06 18:33 | 37.46668 | 23.08802 | 24130 ft | 416 kts | 267° |
| 2026-05-06 18:33 | 37.46411 | 23.05145 | 24470 ft | 421 kts | 266° |
| 2026-05-06 18:33 | 37.46136 | 23.01476 | 24888 ft | 422 kts | 266° |
| 2026-05-06 18:34 | 37.45846 | 22.97789 | 25328 ft | 423 kts | 266° |
| 2026-05-06 18:34 | 37.45546 | 22.94102 | 25739 ft | 424 kts | 266° |
| 2026-05-06 18:34 | 37.45344 | 22.91652 | 25992 ft | 426 kts | 266° |
| 2026-05-06 18:34 | 37.45034 | 22.87935 | 26359 ft | 428 kts | 265° |
| 2026-05-06 18:35 | 37.44721 | 22.84201 | 26736 ft | 429 kts | 265° |
| 2026-05-06 18:35 | 37.44406 | 22.80460 | 27102 ft | 431 kts | 265° |
| 2026-05-06 18:35 | 37.44088 | 22.76694 | 27465 ft | 433 kts | 265° |
| 2026-05-06 18:35 | 37.43769 | 22.72921 | 27797 ft | 435 kts | 265° |
| 2026-05-06 18:36 | 37.43451 | 22.69175 | 28115 ft | 437 kts | 265° |
| 2026-05-06 18:36 | 37.43127 | 22.65373 | 28461 ft | 438 kts | 265° |
| 2026-05-06 18:36 | 37.42801 | 22.61553 | 28807 ft | 440 kts | 265° |
| 2026-05-06 18:36 | 37.42472 | 22.57716 | 29158 ft | 441 kts | 265° |
| 2026-05-06 18:37 | 37.42142 | 22.53886 | 29564 ft | 440 kts | 265° |
| 2026-05-06 18:37 | 37.41811 | 22.50075 | 30100 ft | 437 kts | 265° |
| 2026-05-06 18:37 | 37.41481 | 22.46295 | 30572 ft | 433 kts | 265° |
| 2026-05-06 18:37 | 37.41151 | 22.42522 | 30928 ft | 433 kts | 265° |
| 2026-05-06 18:38 | 37.40770 | 22.38751 | 31205 ft | 435 kts | 259° |
| 2026-05-06 18:38 | 37.39738 | 22.35163 | 31486 ft | 439 kts | 243° |
| 2026-05-06 18:38 | 37.38022 | 22.31981 | 31822 ft | 443 kts | 231° |
| 2026-05-06 18:38 | 37.35730 | 22.29363 | 32099 ft | 448 kts | 219° |
| 2026-05-06 18:39 | 37.33179 | 22.27089 | 32439 ft | 448 kts | 218° |
| 2026-05-06 18:39 | 37.30677 | 22.24838 | 32733 ft | 448 kts | 219° |
| 2026-05-06 18:39 | 37.28164 | 22.22524 | 33059 ft | 448 kts | 219° |
| 2026-05-06 18:40 | 37.23175 | 22.17860 | 33732 ft | 446 kts | 220° |
| 2026-05-06 18:40 | 37.20690 | 22.15531 | 34036 ft | 444 kts | 220° |
| 2026-05-06 18:40 | 37.18226 | 22.13228 | 34080 ft | 440 kts | 220° |
| 2026-05-06 18:41 | 37.13307 | 22.08639 | 34109 ft | 443 kts | 219° |
| 2026-05-06 18:41 | 37.08326 | 22.03998 | 34106 ft | 447 kts | 220° |
| 2026-05-06 18:42 | 37.04044 | 21.98445 | 34113 ft | 442 kts | 235° |
| 2026-05-06 18:42 | 37.00386 | 21.92328 | 34102 ft | 442 kts | 236° |
| 2026-05-06 18:43 | 36.96697 | 21.86176 | 34099 ft | 441 kts | 235° |
| 2026-05-06 18:43 | 36.92986 | 21.80062 | 34105 ft | 441 kts | 235° |
| 2026-05-06 18:44 | 36.89266 | 21.73974 | 34098 ft | 440 kts | 235° |
| 2026-05-06 18:44 | 36.85545 | 21.67903 | 34096 ft | 440 kts | 235° |
| 2026-05-06 18:45 | 36.81821 | 21.61837 | 34095 ft | 440 kts | 235° |
| 2026-05-06 18:45 | 36.78095 | 21.55778 | 34098 ft | 440 kts | 235° |
| 2026-05-06 18:46 | 36.74385 | 21.49756 | 34095 ft | 441 kts | 235° |
| 2026-05-06 18:46 | 36.70643 | 21.43691 | 34101 ft | 442 kts | 235° |
| 2026-05-06 18:47 | 36.66881 | 21.37606 | 34099 ft | 443 kts | 235° |
| 2026-05-06 18:47 | 36.63121 | 21.31535 | 34098 ft | 443 kts | 235° |
| 2026-05-06 18:48 | 36.59350 | 21.25457 | 34098 ft | 443 kts | 235° |
| 2026-05-06 18:48 | 36.55576 | 21.19385 | 34098 ft | 443 kts | 235° |
| 2026-05-06 18:49 | 36.51805 | 21.13329 | 34091 ft | 443 kts | 235° |
| 2026-05-06 18:49 | 36.48057 | 21.07321 | 34095 ft | 443 kts | 235° |
| 2026-05-06 18:50 | 36.44283 | 21.01281 | 34105 ft | 442 kts | 235° |
| 2026-05-06 18:50 | 36.40503 | 20.95241 | 34100 ft | 443 kts | 235° |
| 2026-05-06 18:51 | 36.36723 | 20.89214 | 34095 ft | 442 kts | 235° |
| 2026-05-06 18:51 | 36.32938 | 20.83189 | 34099 ft | 442 kts | 235° |
| 2026-05-06 18:52 | 36.29151 | 20.77172 | 34100 ft | 442 kts | 235° |
| 2026-05-06 18:52 | 36.25367 | 20.71169 | 34096 ft | 442 kts | 235° |
| 2026-05-06 18:53 | 36.21581 | 20.65174 | 34095 ft | 441 kts | 235° |
| 2026-05-06 18:53 | 36.17799 | 20.59195 | 34098 ft | 440 kts | 235° |
| 2026-05-06 18:54 | 36.14044 | 20.53270 | 34091 ft | 440 kts | 235° |
| 2026-05-06 18:54 | 36.10266 | 20.47319 | 34100 ft | 439 kts | 235° |
| 2026-05-06 18:55 | 36.06489 | 20.41378 | 34103 ft | 439 kts | 235° |
| 2026-05-06 18:55 | 36.02709 | 20.35443 | 34100 ft | 439 kts | 235° |
| 2026-05-06 18:56 | 35.98937 | 20.29529 | 34098 ft | 438 kts | 235° |
| 2026-05-06 18:56 | 35.95692 | 20.23264 | 34101 ft | 429 kts | 254° |
| 2026-05-06 18:57 | 35.94732 | 20.16134 | 34105 ft | 419 kts | 274° |
| 2026-05-06 18:57 | 35.94934 | 20.08941 | 34098 ft | 419 kts | 275° |
| 2026-05-06 18:58 | 35.95137 | 20.01799 | 34099 ft | 419 kts | 274° |
| 2026-05-06 18:58 | 35.95309 | 19.94604 | 34097 ft | 419 kts | 274° |
| 2026-05-06 18:59 | 35.95461 | 19.87405 | 34095 ft | 419 kts | 274° |
| 2026-05-06 18:59 | 35.95604 | 19.80215 | 34099 ft | 419 kts | 274° |
| 2026-05-06 19:00 | 35.95740 | 19.73076 | 34097 ft | 418 kts | 275° |
| 2026-05-06 19:00 | 35.95873 | 19.65899 | 34095 ft | 418 kts | 275° |
| 2026-05-06 19:01 | 35.96003 | 19.58718 | 34095 ft | 417 kts | 274° |
| 2026-05-06 19:01 | 35.96128 | 19.51555 | 34089 ft | 417 kts | 274° |
| 2026-05-06 19:02 | 35.96248 | 19.44395 | 34086 ft | 417 kts | 275° |
| 2026-05-06 19:02 | 35.96363 | 19.37286 | 34086 ft | 416 kts | 275° |
| 2026-05-06 19:03 | 35.96475 | 19.30147 | 34084 ft | 416 kts | 274° |
| 2026-05-06 19:03 | 35.96583 | 19.23005 | 34085 ft | 415 kts | 274° |
| 2026-05-06 19:04 | 35.96686 | 19.15874 | 34084 ft | 415 kts | 274° |
| 2026-05-06 19:04 | 35.96785 | 19.08752 | 34071 ft | 415 kts | 274° |
| 2026-05-06 19:05 | 35.96879 | 19.01629 | 34082 ft | 414 kts | 274° |
| 2026-05-06 19:05 | 35.96969 | 18.94516 | 34073 ft | 415 kts | 274° |
| 2026-05-06 19:06 | 35.97055 | 18.87394 | 34081 ft | 415 kts | 273° |
| 2026-05-06 19:06 | 35.97137 | 18.80316 | 34076 ft | 415 kts | 273° |
| 2026-05-06 19:07 | 35.97216 | 18.73147 | 34067 ft | 415 kts | 273° |
| 2026-05-06 19:07 | 35.97289 | 18.66037 | 34065 ft | 414 kts | 272° |
| 2026-05-06 19:08 | 35.97358 | 18.58968 | 34066 ft | 414 kts | 272° |
| 2026-05-06 19:08 | 35.97423 | 18.51864 | 34062 ft | 414 kts | 272° |
| 2026-05-06 19:09 | 35.97483 | 18.44760 | 34065 ft | 413 kts | 272° |
| 2026-05-06 19:09 | 35.97540 | 18.37660 | 34060 ft | 413 kts | 272° |
| 2026-05-06 19:10 | 35.97592 | 18.30571 | 34065 ft | 413 kts | 272° |
| 2026-05-06 19:10 | 35.97641 | 18.23478 | 34059 ft | 413 kts | 272° |
| 2026-05-06 19:11 | 35.97685 | 18.16381 | 34064 ft | 413 kts | 272° |
| 2026-05-06 19:11 | 35.97725 | 18.09282 | 34058 ft | 414 kts | 272° |
| 2026-05-06 19:12 | 35.97760 | 18.02226 | 34058 ft | 414 kts | 272° |
| 2026-05-06 19:12 | 35.97792 | 17.95114 | 34053 ft | 414 kts | 272° |
| 2026-05-06 19:13 | 35.97819 | 17.87996 | 34046 ft | 415 kts | 271° |
| 2026-05-06 19:13 | 35.97842 | 17.80876 | 34042 ft | 415 kts | 271° |
| 2026-05-06 19:14 | 35.97861 | 17.73753 | 34044 ft | 415 kts | 271° |
| 2026-05-06 19:14 | 35.97876 | 17.66625 | 34040 ft | 416 kts | 271° |
| 2026-05-06 19:15 | 35.97887 | 17.59486 | 34033 ft | 416 kts | 271° |
| 2026-05-06 19:15 | 35.97893 | 17.52339 | 34041 ft | 416 kts | 271° |
| 2026-05-06 19:16 | 35.97895 | 17.45192 | 34028 ft | 417 kts | 271° |
| 2026-05-06 19:16 | 35.97893 | 17.38035 | 34031 ft | 417 kts | 271° |
| 2026-05-06 19:17 | 35.97887 | 17.30931 | 34034 ft | 416 kts | 271° |
| 2026-05-06 19:17 | 35.97876 | 17.23786 | 34020 ft | 416 kts | 270° |
| 2026-05-06 19:18 | 35.97861 | 17.16656 | 34016 ft | 413 kts | 271° |
| 2026-05-06 19:18 | 35.97842 | 17.09580 | 34014 ft | 410 kts | 271° |
| 2026-05-06 19:19 | 35.97819 | 17.02579 | 34027 ft | 406 kts | 271° |
| 2026-05-06 19:19 | 35.97793 | 16.95701 | 34007 ft | 401 kts | 271° |
| 2026-05-06 19:20 | 35.97763 | 16.88861 | 34006 ft | 396 kts | 271° |
| 2026-05-06 19:20 | 35.97730 | 16.82096 | 34009 ft | 393 kts | 271° |
| 2026-05-06 19:21 | 35.97693 | 16.75358 | 33930 ft | 393 kts | 271° |
| 2026-05-06 19:21 | 35.97673 | 16.71970 | 33469 ft | 393 kts | 271° |
| 2026-05-06 19:21 | 35.97652 | 16.68617 | 32964 ft | 389 kts | 270° |
| 2026-05-06 19:21 | 35.97630 | 16.65297 | 32519 ft | 385 kts | 270° |
| 2026-05-06 19:22 | 35.97608 | 16.61995 | 32050 ft | 383 kts | 270° |
| 2026-05-06 19:22 | 35.97585 | 16.58719 | 31602 ft | 380 kts | 270° |
| 2026-05-06 19:22 | 35.97561 | 16.55463 | 31152 ft | 378 kts | 270° |
| 2026-05-06 19:22 | 35.97537 | 16.52227 | 30702 ft | 377 kts | 269° |
| 2026-05-06 19:23 | 35.97520 | 16.50069 | 30400 ft | 382 kts | 269° |
| 2026-05-06 19:23 | 35.97493 | 16.46719 | 29921 ft | 398 kts | 269° |
| 2026-05-06 19:23 | 35.97464 | 16.43248 | 29379 ft | 406 kts | 269° |
| 2026-05-06 19:23 | 35.97434 | 16.39772 | 28856 ft | 403 kts | 269° |
| 2026-05-06 19:24 | 35.97393 | 16.35208 | 28204 ft | 398 kts | 269° |
| 2026-05-06 19:24 | 35.97372 | 16.32910 | 27878 ft | 395 kts | 269° |
| 2026-05-06 19:24 | 35.97340 | 16.29532 | 27407 ft | 391 kts | 269° |
| 2026-05-06 19:24 | 35.97308 | 16.26189 | 26941 ft | 388 kts | 269° |
| 2026-05-06 19:25 | 35.97275 | 16.22874 | 26483 ft | 385 kts | 269° |
| 2026-05-06 19:25 | 35.97241 | 16.19582 | 26019 ft | 381 kts | 269° |
| 2026-05-06 19:25 | 35.97206 | 16.16321 | 25567 ft | 379 kts | 269° |
| 2026-05-06 19:25 | 35.97171 | 16.13082 | 25118 ft | 376 kts | 269° |
| 2026-05-06 19:26 | 35.97136 | 16.09908 | 24649 ft | 375 kts | 269° |
| 2026-05-06 19:26 | 35.97100 | 16.06698 | 24198 ft | 372 kts | 269° |
| 2026-05-06 19:26 | 35.97063 | 16.03501 | 23733 ft | 371 kts | 269° |
| 2026-05-06 19:26 | 35.97025 | 16.00324 | 23235 ft | 370 kts | 269° |
| 2026-05-06 19:27 | 35.96987 | 15.97160 | 22767 ft | 366 kts | 268° |
| 2026-05-06 19:27 | 35.96948 | 15.94024 | 22304 ft | 363 kts | 268° |
| 2026-05-06 19:27 | 35.96909 | 15.90919 | 21847 ft | 360 kts | 268° |
| 2026-05-06 19:27 | 35.96869 | 15.87849 | 21414 ft | 356 kts | 268° |
| 2026-05-06 19:28 | 35.96829 | 15.84844 | 20987 ft | 353 kts | 268° |
| 2026-05-06 19:28 | 35.96789 | 15.81830 | 20572 ft | 349 kts | 268° |
| 2026-05-06 19:28 | 35.96748 | 15.78846 | 20159 ft | 346 kts | 268° |
| 2026-05-06 19:28 | 35.96707 | 15.75889 | 19741 ft | 343 kts | 268° |
| 2026-05-06 19:29 | 35.96666 | 15.72953 | 19334 ft | 340 kts | 268° |
| 2026-05-06 19:29 | 35.96624 | 15.70049 | 18932 ft | 337 kts | 268° |
| 2026-05-06 19:29 | 35.96582 | 15.67162 | 18534 ft | 335 kts | 268° |
| 2026-05-06 19:29 | 35.96540 | 15.64303 | 18124 ft | 332 kts | 268° |
| 2026-05-06 19:30 | 35.96535 | 15.61469 | 17676 ft | 330 kts | 271° |
| 2026-05-06 19:30 | 35.96798 | 15.58664 | 17266 ft | 327 kts | 276° |
| 2026-05-06 19:30 | 35.97143 | 15.55903 | 16863 ft | 324 kts | 276° |
| 2026-05-06 19:30 | 35.97498 | 15.53169 | 16481 ft | 321 kts | 276° |
| 2026-05-06 19:31 | 35.97848 | 15.50466 | 16090 ft | 318 kts | 276° |
| 2026-05-06 19:31 | 35.98191 | 15.47781 | 15705 ft | 315 kts | 276° |
| 2026-05-06 19:31 | 35.98857 | 15.42465 | 14959 ft | 311 kts | 275° |
| 2026-05-06 19:32 | 35.99181 | 15.39838 | 14595 ft | 308 kts | 275° |
| 2026-05-06 19:32 | 35.99501 | 15.37225 | 14234 ft | 307 kts | 275° |
| 2026-05-06 19:32 | 35.99818 | 15.34628 | 13870 ft | 305 kts | 275° |
| 2026-05-06 19:32 | 36.00132 | 15.32044 | 13486 ft | 304 kts | 275° |
| 2026-05-06 19:33 | 36.00444 | 15.29468 | 13092 ft | 302 kts | 275° |
| 2026-05-06 19:33 | 36.00754 | 15.26910 | 12721 ft | 300 kts | 274° |
| 2026-05-06 19:33 | 36.01062 | 15.24359 | 12354 ft | 299 kts | 274° |
| 2026-05-06 19:33 | 36.01363 | 15.21858 | 12005 ft | 297 kts | 274° |
| 2026-05-06 19:34 | 36.01666 | 15.19336 | 11654 ft | 296 kts | 274° |
| 2026-05-06 19:34 | 36.01967 | 15.16824 | 11307 ft | 295 kts | 274° |
| 2026-05-06 19:34 | 36.02267 | 15.14320 | 10954 ft | 294 kts | 274° |
| 2026-05-06 19:34 | 36.02567 | 15.11809 | 10620 ft | 297 kts | 273° |
| 2026-05-06 19:35 | 36.02868 | 15.09279 | 10430 ft | 296 kts | 274° |
| 2026-05-06 19:35 | 36.03168 | 15.06766 | 10305 ft | 294 kts | 273° |
| 2026-05-06 19:35 | 36.03463 | 15.04283 | 10159 ft | 288 kts | 274° |
| 2026-05-06 19:35 | 36.03752 | 15.01877 | 10035 ft | 279 kts | 273° |
| 2026-05-06 19:36 | 36.04031 | 14.99530 | 9882 ft | 273 kts | 273° |
| 2026-05-06 19:36 | 36.04304 | 14.97214 | 9577 ft | 272 kts | 274° |
| 2026-05-06 19:36 | 36.04572 | 14.94936 | 9297 ft | 271 kts | 274° |
| 2026-05-06 19:36 | 36.04843 | 14.92644 | 9041 ft | 269 kts | 272° |
| 2026-05-06 19:37 | 36.05111 | 14.90361 | 8761 ft | 268 kts | 273° |
| 2026-05-06 19:37 | 36.05377 | 14.88090 | 8483 ft | 267 kts | 272° |
| 2026-05-06 19:37 | 36.05642 | 14.85829 | 8213 ft | 266 kts | 272° |
| 2026-05-06 19:37 | 36.05906 | 14.83572 | 7943 ft | 265 kts | 271° |
| 2026-05-06 19:38 | 36.06169 | 14.81325 | 7673 ft | 264 kts | 271° |
| 2026-05-06 19:38 | 36.06429 | 14.79080 | 7409 ft | 263 kts | 272° |
| 2026-05-06 19:38 | 36.06689 | 14.76843 | 7150 ft | 263 kts | 273° |
| 2026-05-06 19:38 | 36.06950 | 14.74604 | 6880 ft | 263 kts | 271° |
| 2026-05-06 19:39 | 36.07209 | 14.72372 | 6615 ft | 263 kts | 272° |
| 2026-05-06 19:39 | 36.07467 | 14.70132 | 6362 ft | 262 kts | 274° |
| 2026-05-06 19:39 | 36.07726 | 14.67910 | 6107 ft | 261 kts | 272° |
| 2026-05-06 19:39 | 36.07982 | 14.65694 | 5851 ft | 260 kts | 273° |
| 2026-05-06 19:40 | 36.08234 | 14.63507 | 5592 ft | 261 kts | 272° |
| 2026-05-06 19:40 | 36.08491 | 14.61264 | 5312 ft | 268 kts | 273° |
| 2026-05-06 19:40 | 36.08754 | 14.58950 | 5054 ft | 275 kts | 274° |
| 2026-05-06 19:40 | 36.09027 | 14.56568 | 4746 ft | 282 kts | 273° |
| 2026-05-06 19:41 | 36.09304 | 14.54163 | 4432 ft | 282 kts | 273° |
| 2026-05-06 19:41 | 36.09580 | 14.51764 | 4142 ft | 282 kts | 273° |
| 2026-05-06 19:41 | 36.09855 | 14.49366 | 3876 ft | 281 kts | 274° |
| 2026-05-06 19:41 | 36.10103 | 14.46974 | 3591 ft | 278 kts | 266° |
| 2026-05-06 19:42 | 36.09673 | 14.44763 | 3320 ft | 258 kts | 229° |
| 2026-05-06 19:42 | 36.08452 | 14.43286 | 3152 ft | 239 kts | 209° |
| 2026-05-06 19:42 | 36.07069 | 14.42262 | 3058 ft | 225 kts | 199° |
| 2026-05-06 19:42 | 36.05698 | 14.41470 | 3056 ft | 208 kts | 197° |
| 2026-05-06 19:43 | 36.04434 | 14.40750 | 3035 ft | 191 kts | 196° |
| 2026-05-06 19:43 | 36.03264 | 14.40074 | 3034 ft | 182 kts | 196° |
| 2026-05-06 19:43 | 36.02114 | 14.39406 | 3045 ft | 184 kts | 196° |
| 2026-05-06 19:43 | 36.00949 | 14.38725 | 3052 ft | 185 kts | 197° |
| 2026-05-06 19:44 | 35.99842 | 14.38068 | 3045 ft | 170 kts | 197° |
| 2026-05-06 19:44 | 35.98817 | 14.37457 | 3036 ft | 159 kts | 197° |
| 2026-05-06 19:44 | 35.97823 | 14.36868 | 3039 ft | 159 kts | 196° |
| 2026-05-06 19:44 | 35.96809 | 14.36271 | 3062 ft | 163 kts | 196° |
| 2026-05-06 19:45 | 35.95751 | 14.36015 | 2922 ft | 147 kts | 157° |
| 2026-05-06 19:45 | 35.94916 | 14.36730 | 2812 ft | 151 kts | 140° |
| 2026-05-06 19:45 | 35.94098 | 14.37537 | 2613 ft | 148 kts | 141° |
| 2026-05-06 19:45 | 35.93341 | 14.38338 | 2421 ft | 137 kts | 137° |
| 2026-05-06 19:46 | 35.92641 | 14.39165 | 2255 ft | 144 kts | 136° |
| 2026-05-06 19:46 | 35.91920 | 14.40048 | 2065 ft | 146 kts | 135° |
| 2026-05-06 19:46 | 35.91220 | 14.40917 | 1863 ft | 141 kts | 134° |
| 2026-05-06 19:46 | 35.90554 | 14.41747 | 1711 ft | 129 kts | 135° |
| 2026-05-06 19:47 | 35.89948 | 14.42501 | 1510 ft | 120 kts | 134° |
| 2026-05-06 19:47 | 35.89354 | 14.43245 | 1338 ft | 122 kts | 136° |
| 2026-05-06 19:47 | 35.88761 | 14.43981 | 1193 ft | 122 kts | 136° |
| 2026-05-06 19:47 | 35.88150 | 14.44741 | 1019 ft | 128 kts | 133° |
| 2026-05-06 19:48 | 35.87514 | 14.45538 | 821 ft | 132 kts | 133° |
| 2026-05-06 19:48 | 35.86869 | 14.46340 | 660 ft | 132 kts | 132° |
| 2026-05-06 19:48 | 35.86226 | 14.47138 | 509 ft | 130 kts | 132° |
| 2026-05-06 19:48 | 35.85591 | 14.47922 | 318 ft | 131 kts | 128° |
| 2026-05-06 19:49 | 35.84985 | 14.48704 | 261 ft | 111 kts | 136° |
| 2026-05-06 19:49 | 35.84550 | 14.49227 | 258 ft | 53 kts | 138° |
| 2026-05-06 19:49 | 35.84453 | 14.49450 | 258 ft | 16 kts | 102° |
| 2026-05-06 19:49 | 35.84446 | 14.49517 | 258 ft | 7 kts | 84° |
| 2026-05-06 19:50 | 35.84474 | 14.49567 | 258 ft | 7 kts | 30° |
| 2026-05-06 19:50 | 35.84521 | 14.49567 | 258 ft | 7 kts | 332° |
| 2026-05-06 19:50 | 35.84560 | 14.49533 | 258 ft | 7 kts | 345° |
| 2026-05-06 19:50 | 35.84602 | 14.49552 | 258 ft | 7 kts | 36° |
| 2026-05-06 19:51 | 35.84643 | 14.49576 | 258 ft | 7 kts | 1° |
| 2026-05-06 19:51 | 35.84695 | 14.49555 | 258 ft | 9 kts | 330° |
| 2026-05-06 19:51 | 35.84756 | 14.49518 | 258 ft | 10 kts | 349° |
| 2026-05-06 19:51 | 35.84798 | 14.49514 | 258 ft | 3 kts | 359° |
| 2026-05-06 19:52 | 35.84809 | 14.49514 | 258 ft | 1 kts | 359° |
| 2026-05-06 19:52 | 35.84811 | 14.49514 | 258 ft | 0 kts | 0° |